createdAt,value
2017-05-28T00:00:06.851Z,1010.14
2017-05-28T00:10:06.852Z,1010.15
2017-05-28T00:20:06.850Z,1010.23
2017-05-28T00:30:06.850Z,1010.23
2017-05-28T00:40:06.845Z,1010.27
2017-05-28T00:50:06.852Z,1010.18
2017-05-28T01:00:06.857Z,1010.19
2017-05-28T01:10:06.850Z,1010.13
2017-05-28T01:20:06.852Z,1009.95
2017-05-28T01:30:06.850Z,1009.99
2017-05-28T01:40:06.855Z,1010.04
2017-05-28T01:50:06.850Z,1010.07
2017-05-28T02:00:06.850Z,1009.86
2017-05-28T02:10:06.856Z,1009.86
2017-05-28T02:20:06.855Z,1009.89
2017-05-28T02:30:06.859Z,1009.92
2017-05-28T02:40:06.856Z,1009.94
2017-05-28T02:50:06.851Z,1009.92
2017-05-28T03:00:06.864Z,1010.08
2017-05-28T03:10:06.858Z,1010.19
2017-05-28T03:20:06.856Z,1010.33
2017-05-28T03:30:06.861Z,1010.33
2017-05-28T03:40:06.865Z,1010.42
2017-05-28T03:50:06.852Z,1010.8
2017-05-28T04:00:06.850Z,1011.15
2017-05-28T04:10:06.858Z,1011.37
2017-05-28T04:20:06.859Z,1011.47
2017-05-28T04:30:06.855Z,1011.52
2017-05-28T04:40:06.863Z,1011.42
2017-05-28T04:50:06.858Z,1011.12
2017-05-28T05:00:06.858Z,1011.18
2017-05-28T05:10:06.865Z,1011
2017-05-28T05:20:06.855Z,1011.05
2017-05-28T05:30:06.865Z,1010.9
2017-05-28T05:40:06.866Z,1011.24
2017-05-28T05:50:06.859Z,1010.86
2017-05-28T06:00:06.861Z,1011.08
2017-05-28T06:10:06.865Z,1011.95
2017-05-28T06:20:06.861Z,1011.79
2017-05-28T06:30:06.867Z,1011.88
2017-05-28T06:40:06.861Z,1011.53
2017-05-28T06:50:06.874Z,1011.41
2017-05-28T07:00:06.871Z,1011.13
2017-05-28T07:10:06.868Z,1011.37
2017-05-28T07:20:06.871Z,1011.78
2017-05-28T07:30:06.866Z,1012
2017-05-28T07:40:06.876Z,1011.99
2017-05-28T07:50:06.887Z,1011.88
2017-05-28T08:00:06.943Z,1011.65
2017-05-28T08:10:06.903Z,1011.58
2017-05-28T08:20:07.995Z,1011.51
2017-05-28T08:30:07.003Z,1011.65
2017-05-28T08:40:06.954Z,1011.69
2017-05-28T08:50:06.915Z,1011.96
2017-05-28T09:00:06.986Z,1012.04
2017-05-28T09:10:06.938Z,1012.02
2017-05-28T09:20:07.016Z,1011.89
2017-05-28T09:30:06.966Z,1012.11
2017-05-28T09:40:06.946Z,1012.27
2017-05-28T09:50:06.987Z,1012.33
2017-05-28T10:00:06.958Z,1012.62
2017-05-28T10:10:07.011Z,1012.51
2017-05-28T10:20:06.968Z,1012.2
2017-05-28T10:30:07.044Z,1011.96
2017-05-28T10:40:07.040Z,1011.71
2017-05-28T10:50:06.977Z,1011.37
2017-05-28T11:00:07.092Z,1011.47
2017-05-28T11:10:06.981Z,1011.51
2017-05-28T11:20:06.950Z,1011.4
2017-05-28T11:30:07.011Z,1011.26
2017-05-28T11:40:06.987Z,1011.37
2017-05-28T11:50:07.036Z,1011.38
2017-05-28T12:00:13.645Z,1011.34
2017-05-28T12:10:07.027Z,1011.3
2017-05-28T12:20:07.515Z,1011.32
2017-05-28T12:30:07.778Z,1011.41
2017-05-28T12:40:07.043Z,1011.19
2017-05-28T12:50:07.015Z,1011.04
2017-05-28T13:00:07.070Z,1010.99
2017-05-28T13:10:07.032Z,1010.96
2017-05-28T13:20:06.997Z,1010.88
2017-05-28T13:30:07.047Z,1010.7
2017-05-28T13:40:07.015Z,1010.69
2017-05-28T13:50:07.068Z,1010.69
2017-05-28T14:00:07.037Z,1010.69
2017-05-28T14:10:06.986Z,1010.55
2017-05-28T14:20:07.059Z,1010.5
2017-05-28T14:30:07.020Z,1010.47
2017-05-28T14:40:07.100Z,1010.33
2017-05-28T14:50:07.039Z,1010.27
2017-05-28T15:00:07.006Z,1010.25
2017-05-28T15:10:07.075Z,1010.31
2017-05-28T15:20:07.029Z,1010.2
2017-05-28T15:30:07.086Z,1010.12
2017-05-28T15:40:06.979Z,1010.04
2017-05-28T15:50:07.015Z,1009.92
2017-05-28T16:00:07.068Z,1009.93
2017-05-28T16:10:07.029Z,1009.86
2017-05-28T16:20:07.088Z,1009.77
2017-05-28T16:30:07.096Z,1009.68
2017-05-28T16:40:07.018Z,1009.6
2017-05-28T16:50:07.081Z,1009.57
2017-05-28T17:00:07.044Z,1009.61
2017-05-28T17:10:07.108Z,1009.61
2017-05-28T17:20:07.043Z,1009.65
2017-05-28T17:30:07.098Z,1009.58
2017-05-28T17:40:07.052Z,1009.53
2017-05-28T17:50:07.124Z,1009.59
2017-05-28T18:00:07.102Z,1009.46
2017-05-28T18:10:07.045Z,1009.4
2017-05-28T18:20:07.101Z,1009.28
2017-05-28T18:30:07.064Z,1009.41
2017-05-28T18:40:07.143Z,1009.4
2017-05-28T18:50:07.101Z,1009.43
2017-05-28T19:00:07.071Z,1009.43
2017-05-28T19:10:07.132Z,1009.42
2017-05-28T19:20:07.093Z,1009.49
2017-05-28T19:30:07.140Z,1009.51
2017-05-28T19:40:07.112Z,1009.51
2017-05-28T19:50:07.068Z,1009.5
2017-05-28T20:00:07.130Z,1009.62
2017-05-28T20:10:07.141Z,1009.57
2017-05-28T20:20:07.884Z,1009.55
2017-05-28T20:30:07.152Z,1009.53
2017-05-28T20:40:07.087Z,1009.66
2017-05-28T20:50:07.174Z,1009.75
2017-05-28T21:00:07.090Z,1009.75
2017-05-28T21:10:07.179Z,1009.63
2017-05-28T21:20:07.114Z,1009.48
2017-05-28T21:30:07.070Z,1009.57
2017-05-28T21:40:07.148Z,1009.59
2017-05-28T21:50:07.118Z,1009.48
2017-05-28T22:00:07.060Z,1009.41
2017-05-28T22:10:07.116Z,1009.32
2017-05-28T22:20:07.091Z,1009.26
2017-05-28T22:30:07.150Z,1009.11
2017-05-28T22:40:09.160Z,1009.05
2017-05-28T22:50:07.056Z,1008.9
2017-05-28T23:00:07.146Z,1008.71
2017-05-28T23:10:09.143Z,1008.6
2017-05-28T23:20:07.148Z,1008.55
2017-05-28T23:30:09.169Z,1008.49
2017-05-28T23:40:10.161Z,1008.53
2017-05-28T23:50:08.169Z,1008.51
